createdAt,value
2023-03-10T00:00:23.072Z,11.73
2023-03-10T00:02:50.287Z,10.52
2023-03-10T00:05:19.068Z,11.57
2023-03-10T00:07:46.790Z,10.02
2023-03-10T00:10:14.677Z,12.68
2023-03-10T00:12:41.636Z,9.05
2023-03-10T00:15:09.164Z,9.25
2023-03-10T00:17:35.897Z,8.57
2023-03-10T00:20:07.817Z,10.77
2023-03-10T00:22:35.529Z,9.32
2023-03-10T00:25:02.187Z,10.15
2023-03-10T00:27:28.776Z,12.18
2023-03-10T00:29:55.216Z,10.07
2023-03-10T00:32:21.746Z,10.13
2023-03-10T00:34:48.329Z,9.00
2023-03-10T00:37:14.833Z,10.43
2023-03-10T00:39:42.077Z,10.38
2023-03-10T00:42:08.575Z,9.18
2023-03-10T00:44:35.303Z,8.07
2023-03-10T00:47:01.733Z,9.48
2023-03-10T00:49:28.247Z,10.05
2023-03-10T00:51:54.680Z,10.00
2023-03-10T00:54:21.232Z,8.77
2023-03-10T00:56:47.786Z,9.88
2023-03-10T00:59:14.320Z,9.80
2023-03-10T01:01:42.285Z,8.45
2023-03-10T01:04:12.995Z,8.55
2023-03-10T01:06:39.795Z,10.18
2023-03-10T01:09:06.844Z,8.65
2023-03-10T01:11:33.887Z,8.48
2023-03-10T01:14:02.857Z,10.48
2023-03-10T01:16:30.304Z,11.10
2023-03-10T01:18:57.824Z,9.32
2023-03-10T01:21:28.010Z,9.13
2023-03-10T01:23:54.872Z,8.15
2023-03-10T01:26:21.496Z,8.15
2023-03-10T01:28:49.243Z,7.90
2023-03-10T01:31:17.303Z,9.35
2023-03-10T01:33:45.581Z,8.63
2023-03-10T01:36:15.950Z,8.82
2023-03-10T01:38:43.442Z,8.00
2023-03-10T01:41:10.766Z,8.48
2023-03-10T01:43:51.373Z,9.88
2023-03-10T01:46:26.851Z,8.38
2023-03-10T01:48:55.812Z,8.77
2023-03-10T01:51:22.774Z,10.15
2023-03-10T01:53:49.294Z,9.80
2023-03-10T01:56:15.763Z,8.02
2023-03-10T01:58:46.153Z,9.98
2023-03-10T02:01:13.640Z,8.85
2023-03-10T02:03:46.654Z,9.68
2023-03-10T02:06:19.404Z,9.57
2023-03-10T02:08:50.619Z,8.98
2023-03-10T02:11:18.394Z,9.50
2023-03-10T02:13:44.917Z,11.25
2023-03-10T02:16:12.309Z,9.43
2023-03-10T02:18:40.194Z,9.85
2023-03-10T02:21:25.407Z,9.82
2023-03-10T02:24:33.428Z,9.40
2023-03-10T02:27:04.573Z,8.60
2023-03-10T02:29:42.652Z,8.82
2023-03-10T02:32:14.598Z,9.38
2023-03-10T02:34:41.420Z,8.57
2023-03-10T02:37:07.952Z,9.48
2023-03-10T02:39:34.446Z,9.98
2023-03-10T02:42:01.037Z,10.05
2023-03-10T02:44:27.821Z,10.40
2023-03-10T02:46:54.279Z,9.98
2023-03-10T02:49:23.209Z,9.32
2023-03-10T02:51:49.672Z,10.88
2023-03-10T02:54:16.410Z,9.20
2023-03-10T02:56:43.442Z,9.25
2023-03-10T02:59:10.570Z,9.43
2023-03-10T03:01:37.412Z,9.50
2023-03-10T03:04:04.227Z,9.35
2023-03-10T03:06:31.374Z,9.75
2023-03-10T03:08:58.288Z,9.43
2023-03-10T03:11:24.811Z,8.65
2023-03-10T03:13:51.617Z,10.35
2023-03-10T03:16:19.032Z,9.75
2023-03-10T03:18:45.555Z,9.27
2023-03-10T03:21:15.974Z,8.88
2023-03-10T03:23:42.963Z,9.85
2023-03-10T03:26:18.362Z,9.77
2023-03-10T03:28:45.529Z,8.80
2023-03-10T03:31:21.233Z,8.85
2023-03-10T03:33:49.127Z,7.93
2023-03-10T03:36:15.683Z,8.38
2023-03-10T03:38:42.678Z,9.82
2023-03-10T03:41:10.281Z,10.05
2023-03-10T03:43:37.015Z,8.57
2023-03-10T03:46:04.496Z,9.30
2023-03-10T03:48:31.470Z,9.18
2023-03-10T03:50:58.065Z,8.70
2023-03-10T03:53:24.725Z,9.15
2023-03-10T03:55:51.448Z,8.70
2023-03-10T03:58:17.982Z,9.52
2023-03-10T04:00:44.599Z,9.32
2023-03-10T04:03:11.313Z,9.18
2023-03-10T04:05:37.967Z,9.35
2023-03-10T04:08:05.357Z,8.57
2023-03-10T04:10:31.886Z,8.65
2023-03-10T04:12:58.526Z,6.72
2023-03-10T04:15:25.681Z,10.65
2023-03-10T04:17:52.175Z,9.15
2023-03-10T04:20:18.753Z,10.10
2023-03-10T04:22:45.341Z,9.18
2023-03-10T04:25:12.220Z,8.38
2023-03-10T04:27:38.812Z,8.52
2023-03-10T04:30:09.344Z,9.48
2023-03-10T04:32:35.986Z,8.68
2023-03-10T04:35:02.675Z,8.68
2023-03-10T04:37:29.289Z,7.00
2023-03-10T04:39:57.151Z,7.80
2023-03-10T04:42:24.118Z,6.13
2023-03-10T04:44:52.080Z,8.13
2023-03-10T04:47:18.590Z,7.80
2023-03-10T04:49:45.712Z,8.38
2023-03-10T04:52:12.221Z,8.07
2023-03-10T04:54:38.827Z,8.15
2023-03-10T04:57:05.344Z,8.63
2023-03-10T04:59:31.852Z,7.53
2023-03-10T05:01:58.369Z,9.25
2023-03-10T05:04:25.083Z,8.32
2023-03-10T05:06:53.044Z,8.50
2023-03-10T05:09:19.893Z,9.07
2023-03-10T05:11:46.450Z,9.88
2023-03-10T05:14:13.666Z,7.50
2023-03-10T05:16:40.269Z,6.85
2023-03-10T05:19:07.015Z,11.10
2023-03-10T05:21:33.608Z,9.02
2023-03-10T05:24:00.812Z,7.72
2023-03-10T05:26:27.675Z,9.35
2023-03-10T05:28:54.220Z,7.68
2023-03-10T05:31:26.561Z,7.85
2023-03-10T05:33:54.496Z,8.05
2023-03-10T05:36:21.384Z,9.00
2023-03-10T05:38:48.017Z,8.73
2023-03-10T05:41:14.751Z,8.98
2023-03-10T05:43:41.697Z,8.15
2023-03-10T05:46:08.627Z,9.10
2023-03-10T05:48:35.533Z,8.30
2023-03-10T05:51:12.571Z,9.52
2023-03-10T05:53:40.338Z,7.80
2023-03-10T05:56:09.411Z,9.40
2023-03-10T05:58:36.303Z,8.43
2023-03-10T06:01:03.408Z,8.95
2023-03-10T06:03:30.495Z,8.20
2023-03-10T06:05:58.352Z,7.93
2023-03-10T06:08:28.070Z,8.43
2023-03-10T06:10:55.128Z,7.40
2023-03-10T06:13:21.894Z,8.65
2023-03-10T06:15:53.928Z,7.22
2023-03-10T06:18:21.205Z,8.18
2023-03-10T06:20:48.247Z,8.20
2023-03-10T06:23:16.333Z,8.68
2023-03-10T06:25:43.522Z,7.20
2023-03-10T06:28:11.541Z,6.70
2023-03-10T06:30:38.353Z,7.75
2023-03-10T06:33:04.963Z,7.60
2023-03-10T06:35:32.501Z,9.30
2023-03-10T06:37:59.057Z,8.55
2023-03-10T06:40:25.650Z,7.90
2023-03-10T06:42:52.148Z,8.55
2023-03-10T06:45:19.193Z,9.63
2023-03-10T06:47:45.981Z,7.55
2023-03-10T06:50:13.201Z,7.32
2023-03-10T06:52:39.781Z,9.52
2023-03-10T06:55:10.879Z,7.38
2023-03-10T06:57:37.934Z,7.80
2023-03-10T07:00:07.803Z,6.53
2023-03-10T07:02:34.361Z,8.32
2023-03-10T07:05:01.035Z,8.23
2023-03-10T07:07:27.627Z,7.47
2023-03-10T07:09:54.265Z,7.93
2023-03-10T07:12:20.821Z,6.90
2023-03-10T07:14:47.449Z,6.82
2023-03-10T07:17:14.048Z,8.82
2023-03-10T07:19:40.539Z,7.60
2023-03-10T07:22:07.057Z,5.13
2023-03-10T07:24:34.193Z,7.10
2023-03-10T07:27:01.411Z,7.05
2023-03-10T07:29:28.359Z,6.25
2023-03-10T07:31:55.032Z,8.27
2023-03-10T07:34:21.782Z,6.00
2023-03-10T07:36:48.538Z,7.57
2023-03-10T07:39:15.113Z,7.68
2023-03-10T07:41:41.760Z,8.02
2023-03-10T07:44:08.345Z,6.90
2023-03-10T07:46:35.041Z,6.32
2023-03-10T07:49:04.390Z,5.03
2023-03-10T07:51:31.707Z,6.80
2023-03-10T07:53:58.287Z,6.75
2023-03-10T07:56:25.405Z,7.15
2023-03-10T07:58:52.001Z,6.57
2023-03-10T08:01:21.231Z,6.70
2023-03-10T08:03:48.380Z,6.35
2023-03-10T08:06:25.126Z,7.15
2023-03-10T08:08:52.787Z,7.38
2023-03-10T08:11:20.266Z,7.25
2023-03-10T08:13:47.979Z,7.60
2023-03-10T08:16:16.073Z,7.13
2023-03-10T08:18:43.483Z,7.70
2023-03-10T08:21:10.395Z,7.30
2023-03-10T08:23:38.081Z,6.53
2023-03-10T08:26:12.874Z,5.70
2023-03-10T08:28:39.651Z,7.30
2023-03-10T08:31:15.416Z,6.25
2023-03-10T08:33:42.780Z,5.10
2023-03-10T08:36:15.937Z,5.32
2023-03-10T08:38:42.844Z,5.80
2023-03-10T08:41:19.284Z,6.53
2023-03-10T08:43:49.172Z,6.10
2023-03-10T08:46:17.662Z,7.38
2023-03-10T08:48:44.273Z,6.28
2023-03-10T08:51:13.109Z,6.30
2023-03-10T08:53:41.762Z,5.07
2023-03-10T08:56:08.380Z,7.53
2023-03-10T08:58:35.152Z,6.38
2023-03-10T09:01:01.858Z,6.97
2023-03-10T09:03:31.493Z,5.97
2023-03-10T09:05:58.485Z,5.65
2023-03-10T09:08:27.424Z,5.43
2023-03-10T09:10:54.842Z,5.43
2023-03-10T09:13:21.894Z,5.22
2023-03-10T09:15:48.447Z,5.55
2023-03-10T09:18:15.955Z,4.18
2023-03-10T09:20:43.634Z,5.68
2023-03-10T09:23:12.147Z,5.30
2023-03-10T09:25:41.601Z,5.60
2023-03-10T09:28:10.023Z,5.25
2023-03-10T09:30:38.758Z,6.90
2023-03-10T09:33:08.846Z,6.22
2023-03-10T09:35:39.380Z,5.38
2023-03-10T09:38:08.515Z,5.68
2023-03-10T09:40:37.156Z,8.82
2023-03-10T09:43:07.259Z,5.03
2023-03-10T09:45:38.474Z,5.63
2023-03-10T09:48:44.752Z,5.70
2023-03-10T09:51:24.230Z,4.35
2023-03-10T09:54:04.404Z,4.80
2023-03-10T09:56:36.338Z,5.57
2023-03-10T09:59:09.903Z,4.75
2023-03-10T10:01:37.749Z,4.07
2023-03-10T10:04:30.450Z,4.75
2023-03-10T10:06:58.283Z,4.60
2023-03-10T10:09:42.359Z,3.70
2023-03-10T10:12:41.381Z,5.47
2023-03-10T10:15:22.341Z,4.38
2023-03-10T10:18:15.854Z,4.10
2023-03-10T10:21:00.289Z,4.93
2023-03-10T10:23:43.370Z,3.97
2023-03-10T10:26:18.642Z,3.95
2023-03-10T10:28:50.742Z,3.90
2023-03-10T10:31:20.525Z,4.53
2023-03-10T10:34:05.202Z,4.35
2023-03-10T10:36:35.334Z,4.13
2023-03-10T10:39:04.122Z,4.90
2023-03-10T10:41:33.508Z,4.43
2023-03-10T10:44:08.000Z,4.88
2023-03-10T10:46:34.534Z,2.70
2023-03-10T10:49:17.704Z,2.42
2023-03-10T10:52:05.315Z,4.75
2023-03-10T10:54:38.385Z,5.93
2023-03-10T10:57:18.124Z,4.72
2023-03-10T10:59:44.641Z,4.60
2023-03-10T11:02:33.342Z,4.50
2023-03-10T11:05:12.060Z,6.20
2023-03-10T11:07:38.661Z,5.22
2023-03-10T11:10:27.754Z,6.38
2023-03-10T11:13:13.347Z,4.82
2023-03-10T11:15:53.241Z,5.72
2023-03-10T11:18:27.726Z,5.85
2023-03-10T11:21:25.981Z,6.78
2023-03-10T11:24:12.085Z,5.70
2023-03-10T11:26:59.372Z,6.80
2023-03-10T11:29:35.124Z,5.60
2023-03-10T11:32:01.565Z,5.25
2023-03-10T11:34:30.597Z,5.60
2023-03-10T11:37:25.001Z,5.70
2023-03-10T11:39:59.771Z,5.60
2023-03-10T11:42:41.400Z,5.22
2023-03-10T11:45:37.666Z,4.03
2023-03-10T11:48:04.106Z,4.38
2023-03-10T11:50:43.469Z,4.93
2023-03-10T11:53:19.137Z,4.22
2023-03-10T11:55:47.192Z,5.35
2023-03-10T11:58:36.855Z,4.38
2023-03-10T12:01:04.082Z,4.18
2023-03-10T12:03:40.119Z,4.82
2023-03-10T12:06:13.355Z,4.88
2023-03-10T12:08:41.267Z,4.82
2023-03-10T12:11:15.987Z,4.50
2023-03-10T12:13:49.697Z,5.32
2023-03-10T12:16:22.138Z,4.18
2023-03-10T12:18:48.790Z,4.43
2023-03-10T12:21:21.236Z,4.68
2023-03-10T12:23:54.550Z,4.80
2023-03-10T12:26:49.900Z,4.90
2023-03-10T12:29:32.355Z,2.50
2023-03-10T12:31:59.187Z,5.20
2023-03-10T12:34:29.220Z,3.88
2023-03-10T12:37:10.680Z,5.20
2023-03-10T12:39:42.448Z,4.93
2023-03-10T12:42:29.223Z,5.07
2023-03-10T12:45:06.797Z,5.20
2023-03-10T12:50:36.356Z,4.35
2023-03-10T12:53:30.482Z,6.38
2023-03-10T12:56:22.650Z,5.80
2023-03-10T12:58:56.028Z,4.97
2023-03-10T13:01:26.674Z,5.95
2023-03-10T13:03:55.446Z,6.40
2023-03-10T13:06:29.569Z,7.07
2023-03-10T13:09:01.825Z,7.07
2023-03-10T13:11:39.238Z,6.20
2023-03-10T13:14:12.946Z,5.30
2023-03-10T13:16:40.257Z,6.95
2023-03-10T13:19:07.097Z,8.32
2023-03-10T13:21:39.046Z,8.88
2023-03-10T13:24:35.743Z,8.50
2023-03-10T13:27:06.804Z,8.18
2023-03-10T13:29:34.376Z,9.65
2023-03-10T13:32:00.919Z,9.70
2023-03-10T13:34:30.509Z,6.95
2023-03-10T13:37:06.192Z,7.95
2023-03-10T13:39:33.175Z,7.10
2023-03-10T13:42:02.249Z,7.57
2023-03-10T13:44:37.412Z,8.63
2023-03-10T13:47:13.407Z,10.90
2023-03-10T13:49:44.672Z,9.55
2023-03-10T13:52:14.845Z,8.85
2023-03-10T13:54:42.259Z,9.30
2023-03-10T13:57:31.113Z,13.15
2023-03-10T13:59:59.281Z,10.60
2023-03-10T14:02:33.196Z,11.40
2023-03-10T14:05:00.998Z,9.90
2023-03-10T14:07:33.063Z,11.10
2023-03-10T14:10:08.957Z,9.23
2023-03-10T14:12:39.732Z,10.55
2023-03-10T14:15:26.778Z,11.70
2023-03-10T14:18:13.356Z,8.85
2023-03-10T14:20:43.587Z,10.88
2023-03-10T14:23:18.948Z,9.68
2023-03-10T14:25:46.858Z,9.02
2023-03-10T14:28:21.902Z,10.93
2023-03-10T14:30:48.467Z,11.70
2023-03-10T14:33:16.072Z,13.63
2023-03-10T14:35:44.060Z,7.18
2023-03-10T14:38:10.613Z,11.25
2023-03-10T14:40:46.924Z,12.73
2023-03-10T14:43:25.784Z,15.57
2023-03-10T14:45:55.444Z,18.48
2023-03-10T14:48:28.293Z,13.63
2023-03-10T14:50:56.946Z,14.00
2023-03-10T14:53:25.351Z,13.10
2023-03-10T14:55:54.699Z,12.85
2023-03-10T14:58:24.545Z,7.97
2023-03-10T15:00:51.530Z,8.80
2023-03-10T15:03:18.033Z,7.70
2023-03-10T15:05:49.085Z,6.15
2023-03-10T15:10:48.047Z,7.75
2023-03-10T15:13:16.549Z,7.20
2023-03-10T15:15:45.294Z,13.07
2023-03-10T15:18:14.194Z,7.97
2023-03-10T15:20:40.985Z,7.30
2023-03-10T15:23:11.961Z,7.82
2023-03-10T15:25:46.162Z,7.88
2023-03-10T15:28:12.970Z,7.85
2023-03-10T15:30:39.537Z,9.30
2023-03-10T15:33:06.089Z,10.57
2023-03-10T15:35:33.050Z,11.77
2023-03-10T15:38:10.514Z,9.95
2023-03-10T15:40:38.807Z,11.38
2023-03-10T15:43:20.377Z,9.95
2023-03-10T15:45:49.231Z,11.13
2023-03-10T15:48:16.887Z,8.80
2023-03-10T15:50:46.890Z,6.63
2023-03-10T15:53:13.900Z,9.70
2023-03-10T15:55:41.586Z,11.48
2023-03-10T15:58:09.899Z,9.27
2023-03-10T16:00:36.427Z,9.43
2023-03-10T16:03:02.972Z,10.80
2023-03-10T16:05:29.723Z,13.10
2023-03-10T16:07:56.269Z,13.77
2023-03-10T16:10:22.777Z,8.85
2023-03-10T16:12:49.300Z,6.70
2023-03-10T16:15:18.218Z,9.30
2023-03-10T16:17:45.236Z,8.85
2023-03-10T16:20:12.788Z,26.05
2023-03-10T16:22:41.188Z,21.27
2023-03-10T16:25:12.196Z,9.77
2023-03-10T16:27:38.787Z,11.23
2023-03-10T16:30:06.366Z,11.77
2023-03-10T16:32:33.787Z,8.13
2023-03-10T16:35:01.165Z,7.03
2023-03-10T16:37:36.359Z,5.30
2023-03-10T16:40:05.105Z,5.93
2023-03-10T16:42:35.805Z,5.97
2023-03-10T16:45:04.498Z,5.35
2023-03-10T16:47:31.324Z,3.20
2023-03-10T16:49:57.812Z,4.05
2023-03-10T16:52:24.330Z,4.47
2023-03-10T16:54:51.098Z,2.28
2023-03-10T16:57:17.953Z,4.38
2023-03-10T16:59:44.746Z,3.17
2023-03-10T17:02:17.433Z,6.43
2023-03-10T17:04:45.330Z,4.20
2023-03-10T17:07:11.916Z,2.28
2023-03-10T17:09:38.343Z,3.42
2023-03-10T17:12:05.251Z,1.67
2023-03-10T17:14:32.349Z,2.85
2023-03-10T17:16:58.896Z,2.50
2023-03-10T17:19:29.786Z,2.45
2023-03-10T17:21:57.283Z,4.75
2023-03-10T17:24:24.559Z,6.22
2023-03-10T17:26:51.589Z,7.00
2023-03-10T17:29:18.355Z,2.13
2023-03-10T17:31:48.941Z,2.78
2023-03-10T17:34:16.099Z,2.70
2023-03-10T17:36:42.645Z,3.22
2023-03-10T17:39:09.159Z,4.03
2023-03-10T17:41:36.332Z,4.40
2023-03-10T17:44:06.446Z,4.65
2023-03-10T17:46:33.478Z,1.27
2023-03-10T17:49:00.161Z,2.67
2023-03-10T17:51:30.092Z,3.13
2023-03-10T17:53:58.276Z,1.70
2023-03-10T17:56:25.570Z,3.53
2023-03-10T17:58:58.313Z,3.25
2023-03-10T18:01:30.172Z,3.78
2023-03-10T18:03:58.970Z,2.40
2023-03-10T18:06:28.989Z,4.18
2023-03-10T18:08:57.152Z,3.35
2023-03-10T18:11:24.684Z,4.18
2023-03-10T18:13:53.883Z,4.38
2023-03-10T18:16:27.013Z,3.72
2023-03-10T18:18:55.497Z,7.30
2023-03-10T18:21:23.615Z,5.53
2023-03-10T18:23:54.971Z,2.13
2023-03-10T18:26:25.010Z,2.00
2023-03-10T18:28:51.562Z,1.48
2023-03-10T18:31:21.625Z,2.28
2023-03-10T18:33:49.428Z,2.08
2023-03-10T18:36:17.435Z,2.15
2023-03-10T18:38:45.337Z,4.47
2023-03-10T18:41:12.215Z,5.72
2023-03-10T18:43:38.975Z,10.82
2023-03-10T18:46:06.985Z,4.50
2023-03-10T18:48:34.425Z,2.42
2023-03-10T18:51:01.161Z,6.40
2023-03-10T18:53:28.606Z,3.67
2023-03-10T18:55:57.674Z,3.30
2023-03-10T18:58:24.312Z,2.45
2023-03-10T19:00:50.816Z,3.13
2023-03-10T19:03:18.402Z,3.95
2023-03-10T19:05:45.444Z,3.95
2023-03-10T19:08:12.070Z,4.38
2023-03-10T19:10:39.534Z,13.35
2023-03-10T19:13:07.565Z,4.22
2023-03-10T19:15:36.575Z,5.28
2023-03-10T19:18:03.681Z,5.05
2023-03-10T19:20:30.201Z,4.32
2023-03-10T19:22:56.656Z,3.92
2023-03-10T19:25:23.967Z,3.63
2023-03-10T19:27:50.444Z,3.22
2023-03-10T19:30:20.105Z,4.18
2023-03-10T19:32:47.799Z,7.43
2023-03-10T19:35:15.775Z,7.72
2023-03-10T19:37:46.144Z,7.45
2023-03-10T19:40:16.586Z,4.43
2023-03-10T19:42:44.003Z,5.13
2023-03-10T19:45:13.247Z,4.55
2023-03-10T19:47:41.529Z,3.50
2023-03-10T19:50:10.317Z,2.53
2023-03-10T19:52:38.937Z,8.48
2023-03-10T19:55:09.453Z,2.00
2023-03-10T19:57:36.802Z,4.00
2023-03-10T20:00:08.709Z,5.28
2023-03-10T20:02:35.363Z,4.53
2023-03-10T20:05:02.132Z,4.10
2023-03-10T20:07:28.649Z,4.65
2023-03-10T20:09:55.070Z,7.20
2023-03-10T20:12:21.680Z,5.97
2023-03-10T20:14:48.485Z,9.88
2023-03-10T20:17:17.385Z,4.78
2023-03-10T20:19:45.189Z,6.60
2023-03-10T20:22:13.792Z,2.75
2023-03-10T20:24:40.567Z,6.22
2023-03-10T20:27:07.066Z,7.05
2023-03-10T20:29:33.658Z,3.97
2023-03-10T20:32:00.314Z,7.03
2023-03-10T20:34:27.151Z,11.88
2023-03-10T20:36:53.685Z,5.82
2023-03-10T20:39:20.214Z,5.93
2023-03-10T20:41:47.690Z,5.35
2023-03-10T20:44:14.458Z,4.47
2023-03-10T20:46:44.401Z,4.28
2023-03-10T20:49:12.571Z,2.25
2023-03-10T20:51:40.129Z,5.78
2023-03-10T20:54:08.213Z,11.85
2023-03-10T20:56:34.636Z,3.20
2023-03-10T20:59:01.828Z,5.60
2023-03-10T21:01:29.329Z,4.82
2023-03-10T21:03:56.512Z,4.45
2023-03-10T21:06:24.688Z,6.82
2023-03-10T21:08:51.251Z,8.40
2023-03-10T21:11:18.128Z,4.95
2023-03-10T21:13:45.202Z,10.70
2023-03-10T21:16:11.795Z,7.00
2023-03-10T21:18:38.838Z,6.22
2023-03-10T21:21:07.542Z,7.50
2023-03-10T21:23:34.821Z,4.63
2023-03-10T21:26:01.275Z,7.78
2023-03-10T21:28:27.739Z,5.60
2023-03-10T21:30:55.816Z,3.33
2023-03-10T21:33:23.100Z,4.05
2023-03-10T21:35:49.622Z,6.72
2023-03-10T21:38:16.112Z,7.28
2023-03-10T21:40:43.029Z,6.85
2023-03-10T21:43:10.506Z,9.88
2023-03-10T21:45:38.441Z,6.63
2023-03-10T21:48:05.185Z,5.10
2023-03-10T21:50:31.954Z,7.07
2023-03-10T21:52:58.566Z,7.05
2023-03-10T21:55:25.714Z,6.82
2023-03-10T21:57:52.566Z,10.20
2023-03-10T22:00:20.104Z,10.82
2023-03-10T22:02:47.334Z,5.55
2023-03-10T22:05:16.155Z,4.70
2023-03-10T22:07:42.656Z,4.68
2023-03-10T22:10:11.512Z,6.70
2023-03-10T22:12:38.706Z,5.55
2023-03-10T22:15:07.185Z,6.90
2023-03-10T22:17:33.714Z,5.47
2023-03-10T22:20:01.713Z,3.80
2023-03-10T22:22:28.265Z,7.97
2023-03-10T22:24:54.909Z,4.85
2023-03-10T22:27:21.325Z,9.35
2023-03-10T22:29:47.729Z,10.32
2023-03-10T22:32:14.228Z,7.68
2023-03-10T22:34:41.860Z,7.07
2023-03-10T22:37:10.270Z,8.77
2023-03-10T22:39:37.686Z,7.18
2023-03-10T22:42:04.847Z,10.77
2023-03-10T22:44:36.721Z,8.40
2023-03-10T22:47:08.703Z,9.10
2023-03-10T22:49:35.401Z,9.50
2023-03-10T22:52:06.446Z,15.43
2023-03-10T22:54:33.540Z,6.68
2023-03-10T22:57:00.102Z,11.38
2023-03-10T22:59:26.577Z,9.30
2023-03-10T23:01:53.081Z,10.75
2023-03-10T23:04:19.736Z,5.25
2023-03-10T23:06:46.188Z,3.58
2023-03-10T23:09:12.762Z,4.38
2023-03-10T23:11:39.245Z,10.48
2023-03-10T23:14:06.369Z,5.63
2023-03-10T23:16:36.389Z,9.40
2023-03-10T23:19:07.963Z,8.32
2023-03-10T23:21:35.237Z,7.07
2023-03-10T23:24:01.999Z,4.75
2023-03-10T23:26:30.132Z,6.75
2023-03-10T23:28:57.227Z,6.15
2023-03-10T23:31:23.845Z,2.30
2023-03-10T23:33:50.636Z,8.70
2023-03-10T23:36:17.410Z,4.75
2023-03-10T23:38:43.930Z,6.78
2023-03-10T23:41:10.461Z,5.95
2023-03-10T23:43:37.267Z,7.00
2023-03-10T23:46:08.324Z,9.20
2023-03-10T23:48:35.950Z,3.65
2023-03-10T23:51:02.977Z,4.50
2023-03-10T23:53:29.983Z,5.55
2023-03-10T23:56:00.224Z,6.85
2023-03-10T23:58:28.864Z,8.95
